sensor_id;sensor_type;location;lat;lon;timestamp;P1;durP1;ratioP1;P2;durP2;ratioP2
3993;SDS011;2011;48.238;13.948;2022-07-03T00:01:31;5.93;;;3.67;;
3993;SDS011;2011;48.238;13.948;2022-07-03T00:03:58;6.10;;;3.90;;
3993;SDS011;2011;48.238;13.948;2022-07-03T00:06:25;7.50;;;4.23;;
3993;SDS011;2011;48.238;13.948;2022-07-03T00:08:52;7.57;;;4.63;;
3993;SDS011;2011;48.238;13.948;2022-07-03T00:11:21;7.37;;;3.73;;
3993;SDS011;2011;48.238;13.948;2022-07-03T00:13:49;5.87;;;3.83;;
3993;SDS011;2011;48.238;13.948;2022-07-03T00:16:16;6.30;;;4.27;;
3993;SDS011;2011;48.238;13.948;2022-07-03T00:18:43;8.43;;;3.97;;
3993;SDS011;2011;48.238;13.948;2022-07-03T00:21:11;6.17;;;3.67;;
3993;SDS011;2011;48.238;13.948;2022-07-03T00:23:40;6.10;;;3.97;;
3993;SDS011;2011;48.238;13.948;2022-07-03T00:26:10;30.37;;;5.30;;
3993;SDS011;2011;48.238;13.948;2022-07-03T00:28:40;8.47;;;4.10;;
3993;SDS011;2011;48.238;13.948;2022-07-03T00:31:07;8.77;;;4.50;;
3993;SDS011;2011;48.238;13.948;2022-07-03T00:33:36;8.33;;;4.50;;
3993;SDS011;2011;48.238;13.948;2022-07-03T00:36:04;6.40;;;3.47;;
3993;SDS011;2011;48.238;13.948;2022-07-03T00:38:32;5.77;;;3.93;;
3993;SDS011;2011;48.238;13.948;2022-07-03T00:41:00;7.07;;;3.83;;
3993;SDS011;2011;48.238;13.948;2022-07-03T00:43:29;8.77;;;4.30;;
3993;SDS011;2011;48.238;13.948;2022-07-03T00:46:06;6.97;;;4.17;;
3993;SDS011;2011;48.238;13.948;2022-07-03T00:48:36;6.20;;;4.10;;
3993;SDS011;2011;48.238;13.948;2022-07-03T00:51:05;7.43;;;4.73;;
3993;SDS011;2011;48.238;13.948;2022-07-03T00:53:33;6.07;;;3.83;;
3993;SDS011;2011;48.238;13.948;2022-07-03T00:56:04;5.23;;;3.50;;
3993;SDS011;2011;48.238;13.948;2022-07-03T00:58:31;11.30;;;4.40;;
3993;SDS011;2011;48.238;13.948;2022-07-03T01:01:01;9.23;;;4.00;;
3993;SDS011;2011;48.238;13.948;2022-07-03T01:03:28;8.57;;;4.17;;
3993;SDS011;2011;48.238;13.948;2022-07-03T01:06:01;6.07;;;4.00;;
3993;SDS011;2011;48.238;13.948;2022-07-03T01:08:35;7.33;;;3.83;;
3993;SDS011;2011;48.238;13.948;2022-07-03T01:11:10;6.43;;;4.10;;
3993;SDS011;2011;48.238;13.948;2022-07-03T01:16:40;7.97;;;4.20;;
3993;SDS011;2011;48.238;13.948;2022-07-03T01:19:30;7.57;;;3.67;;
3993;SDS011;2011;48.238;13.948;2022-07-03T01:22:08;6.47;;;4.30;;
3993;SDS011;2011;48.238;13.948;2022-07-03T01:30:39;10.17;;;3.90;;
3993;SDS011;2011;48.238;13.948;2022-07-03T01:33:11;9.33;;;4.27;;
3993;SDS011;2011;48.238;13.948;2022-07-03T01:35:42;14.23;;;3.70;;
3993;SDS011;2011;48.238;13.948;2022-07-03T01:38:16;5.87;;;4.40;;
3993;SDS011;2011;48.238;13.948;2022-07-03T01:40:44;7.50;;;4.57;;
3993;SDS011;2011;48.238;13.948;2022-07-03T01:43:13;15.23;;;4.90;;
3993;SDS011;2011;48.238;13.948;2022-07-03T01:45:41;6.83;;;4.30;;
3993;SDS011;2011;48.238;13.948;2022-07-03T01:48:10;5.83;;;4.03;;
3993;SDS011;2011;48.238;13.948;2022-07-03T01:50:38;11.47;;;4.67;;
3993;SDS011;2011;48.238;13.948;2022-07-03T01:53:08;16.03;;;4.57;;
3993;SDS011;2011;48.238;13.948;2022-07-03T01:55:37;8.00;;;3.80;;
3993;SDS011;2011;48.238;13.948;2022-07-03T01:58:05;5.90;;;3.60;;
3993;SDS011;2011;48.238;13.948;2022-07-03T02:00:38;13.37;;;4.27;;
3993;SDS011;2011;48.238;13.948;2022-07-03T02:03:11;5.90;;;4.23;;
3993;SDS011;2011;48.238;13.948;2022-07-03T02:05:45;7.73;;;4.73;;
3993;SDS011;2011;48.238;13.948;2022-07-03T02:08:24;7.03;;;4.43;;
3993;SDS011;2011;48.238;13.948;2022-07-03T02:11:11;10.43;;;4.23;;
3993;SDS011;2011;48.238;13.948;2022-07-03T02:13:50;6.90;;;4.40;;
3993;SDS011;2011;48.238;13.948;2022-07-03T02:16:21;5.70;;;3.40;;
3993;SDS011;2011;48.238;13.948;2022-07-03T02:18:53;9.10;;;4.33;;
3993;SDS011;2011;48.238;13.948;2022-07-03T02:21:25;8.30;;;3.90;;
3993;SDS011;2011;48.238;13.948;2022-07-03T02:24:11;9.03;;;4.33;;
3993;SDS011;2011;48.238;13.948;2022-07-03T02:26:46;7.40;;;4.30;;
3993;SDS011;2011;48.238;13.948;2022-07-03T02:29:20;14.47;;;3.90;;
3993;SDS011;2011;48.238;13.948;2022-07-03T02:31:56;5.70;;;3.93;;
3993;SDS011;2011;48.238;13.948;2022-07-03T02:34:24;5.20;;;3.87;;
3993;SDS011;2011;48.238;13.948;2022-07-03T02:36:55;6.83;;;4.73;;
3993;SDS011;2011;48.238;13.948;2022-07-03T02:39:26;6.50;;;4.70;;
3993;SDS011;2011;48.238;13.948;2022-07-03T02:41:58;6.30;;;4.40;;
3993;SDS011;2011;48.238;13.948;2022-07-03T02:44:30;14.10;;;3.80;;
3993;SDS011;2011;48.238;13.948;2022-07-03T02:47:10;9.70;;;5.20;;
3993;SDS011;2011;48.238;13.948;2022-07-03T02:49:43;8.87;;;4.80;;
3993;SDS011;2011;48.238;13.948;2022-07-03T02:52:30;5.27;;;4.03;;
3993;SDS011;2011;48.238;13.948;2022-07-03T02:55:02;7.40;;;5.00;;
3993;SDS011;2011;48.238;13.948;2022-07-03T02:57:37;10.30;;;5.40;;
3993;SDS011;2011;48.238;13.948;2022-07-03T03:00:06;12.20;;;5.20;;
3993;SDS011;2011;48.238;13.948;2022-07-03T03:02:54;8.27;;;5.30;;
3993;SDS011;2011;48.238;13.948;2022-07-03T03:05:25;6.57;;;4.80;;
3993;SDS011;2011;48.238;13.948;2022-07-03T03:08:00;8.20;;;4.50;;
3993;SDS011;2011;48.238;13.948;2022-07-03T03:10:33;18.73;;;5.47;;
3993;SDS011;2011;48.238;13.948;2022-07-03T03:13:03;7.90;;;5.00;;
3993;SDS011;2011;48.238;13.948;2022-07-03T03:15:31;9.10;;;4.70;;
3993;SDS011;2011;48.238;13.948;2022-07-03T03:18:02;11.50;;;5.60;;
3993;SDS011;2011;48.238;13.948;2022-07-03T03:20:33;12.23;;;5.50;;
3993;SDS011;2011;48.238;13.948;2022-07-03T03:25:54;8.80;;;5.80;;
3993;SDS011;2011;48.238;13.948;2022-07-03T03:28:24;11.43;;;5.40;;
3993;SDS011;2011;48.238;13.948;2022-07-03T03:30:51;9.10;;;6.10;;
3993;SDS011;2011;48.238;13.948;2022-07-03T03:33:20;8.83;;;6.10;;
3993;SDS011;2011;48.238;13.948;2022-07-03T03:35:47;9.30;;;6.13;;
3993;SDS011;2011;48.238;13.948;2022-07-03T03:38:14;10.43;;;6.60;;
3993;SDS011;2011;48.238;13.948;2022-07-03T03:40:42;11.50;;;6.67;;
3993;SDS011;2011;48.238;13.948;2022-07-03T03:43:10;8.73;;;6.20;;
3993;SDS011;2011;48.238;13.948;2022-07-03T03:45:37;8.97;;;5.57;;
3993;SDS011;2011;48.238;13.948;2022-07-03T03:48:04;9.00;;;5.80;;
3993;SDS011;2011;48.238;13.948;2022-07-03T03:50:34;8.10;;;5.60;;
3993;SDS011;2011;48.238;13.948;2022-07-03T03:53:01;10.13;;;6.30;;
3993;SDS011;2011;48.238;13.948;2022-07-03T03:55:28;9.13;;;5.40;;
3993;SDS011;2011;48.238;13.948;2022-07-03T03:57:55;8.50;;;5.60;;
3993;SDS011;2011;48.238;13.948;2022-07-03T04:00:22;9.27;;;6.07;;
3993;SDS011;2011;48.238;13.948;2022-07-03T04:02:49;14.40;;;5.83;;
3993;SDS011;2011;48.238;13.948;2022-07-03T04:05:16;8.47;;;5.23;;
3993;SDS011;2011;48.238;13.948;2022-07-03T04:07:45;9.67;;;6.47;;
3993;SDS011;2011;48.238;13.948;2022-07-03T04:10:11;10.53;;;6.10;;
3993;SDS011;2011;48.238;13.948;2022-07-03T04:12:38;7.83;;;6.33;;
3993;SDS011;2011;48.238;13.948;2022-07-03T04:15:06;10.33;;;6.57;;
3993;SDS011;2011;48.238;13.948;2022-07-03T04:17:33;10.10;;;6.13;;
3993;SDS011;2011;48.238;13.948;2022-07-03T04:20:00;10.60;;;5.40;;
3993;SDS011;2011;48.238;13.948;2022-07-03T04:22:28;9.47;;;5.27;;
3993;SDS011;2011;48.238;13.948;2022-07-03T04:24:56;11.23;;;5.70;;
3993;SDS011;2011;48.238;13.948;2022-07-03T04:27:23;10.80;;;5.73;;
3993;SDS011;2011;48.238;13.948;2022-07-03T04:29:50;7.97;;;5.10;;
3993;SDS011;2011;48.238;13.948;2022-07-03T04:32:17;11.17;;;5.70;;
3993;SDS011;2011;48.238;13.948;2022-07-03T04:34:44;8.30;;;5.23;;
3993;SDS011;2011;48.238;13.948;2022-07-03T04:37:11;6.97;;;5.00;;
3993;SDS011;2011;48.238;13.948;2022-07-03T04:39:38;9.13;;;5.10;;
3993;SDS011;2011;48.238;13.948;2022-07-03T04:42:07;7.27;;;4.50;;
3993;SDS011;2011;48.238;13.948;2022-07-03T04:44:34;14.13;;;4.77;;
3993;SDS011;2011;48.238;13.948;2022-07-03T04:47:01;9.60;;;4.87;;
3993;SDS011;2011;48.238;13.948;2022-07-03T04:49:28;7.00;;;5.07;;
3993;SDS011;2011;48.238;13.948;2022-07-03T04:51:55;9.60;;;4.70;;
3993;SDS011;2011;48.238;13.948;2022-07-03T04:54:22;34.67;;;5.33;;
3993;SDS011;2011;48.238;13.948;2022-07-03T04:56:49;11.63;;;5.43;;
3993;SDS011;2011;48.238;13.948;2022-07-03T04:59:18;15.60;;;5.90;;
3993;SDS011;2011;48.238;13.948;2022-07-03T05:01:45;8.33;;;5.53;;
3993;SDS011;2011;48.238;13.948;2022-07-03T05:04:13;7.60;;;5.03;;
3993;SDS011;2011;48.238;13.948;2022-07-03T05:06:40;7.73;;;4.77;;
3993;SDS011;2011;48.238;13.948;2022-07-03T05:09:07;7.40;;;4.83;;
3993;SDS011;2011;48.238;13.948;2022-07-03T05:11:34;7.90;;;5.03;;
3993;SDS011;2011;48.238;13.948;2022-07-03T05:14:02;6.40;;;4.60;;
3993;SDS011;2011;48.238;13.948;2022-07-03T05:16:30;8.90;;;5.10;;
3993;SDS011;2011;48.238;13.948;2022-07-03T05:18:58;13.57;;;4.57;;
3993;SDS011;2011;48.238;13.948;2022-07-03T05:21:25;6.50;;;4.43;;
3993;SDS011;2011;48.238;13.948;2022-07-03T05:23:52;12.73;;;4.40;;
3993;SDS011;2011;48.238;13.948;2022-07-03T05:26:19;8.03;;;4.87;;
3993;SDS011;2011;48.238;13.948;2022-07-03T05:28:46;7.83;;;4.90;;
3993;SDS011;2011;48.238;13.948;2022-07-03T05:31:14;9.37;;;5.00;;
3993;SDS011;2011;48.238;13.948;2022-07-03T05:33:42;9.03;;;5.40;;
3993;SDS011;2011;48.238;13.948;2022-07-03T05:36:09;7.50;;;4.90;;
3993;SDS011;2011;48.238;13.948;2022-07-03T05:38:36;7.93;;;4.80;;
3993;SDS011;2011;48.238;13.948;2022-07-03T05:41:20;5.97;;;4.40;;
3993;SDS011;2011;48.238;13.948;2022-07-03T05:43:48;6.70;;;4.60;;
3993;SDS011;2011;48.238;13.948;2022-07-03T05:46:15;8.60;;;4.90;;
3993;SDS011;2011;48.238;13.948;2022-07-03T05:48:43;6.57;;;4.33;;
3993;SDS011;2011;48.238;13.948;2022-07-03T05:51:10;9.80;;;4.63;;
3993;SDS011;2011;48.238;13.948;2022-07-03T05:53:37;7.37;;;4.67;;
3993;SDS011;2011;48.238;13.948;2022-07-03T05:56:04;7.20;;;4.67;;
3993;SDS011;2011;48.238;13.948;2022-07-03T05:58:32;6.80;;;4.87;;
3993;SDS011;2011;48.238;13.948;2022-07-03T06:01:00;7.93;;;4.60;;
3993;SDS011;2011;48.238;13.948;2022-07-03T06:03:27;8.60;;;4.70;;
3993;SDS011;2011;48.238;13.948;2022-07-03T06:05:55;8.03;;;5.47;;
3993;SDS011;2011;48.238;13.948;2022-07-03T06:08:22;13.57;;;4.70;;
3993;SDS011;2011;48.238;13.948;2022-07-03T06:10:49;7.43;;;5.03;;
3993;SDS011;2011;48.238;13.948;2022-07-03T06:13:16;9.47;;;4.57;;
3993;SDS011;2011;48.238;13.948;2022-07-03T06:15:43;8.90;;;5.10;;
3993;SDS011;2011;48.238;13.948;2022-07-03T06:18:11;9.50;;;5.47;;
3993;SDS011;2011;48.238;13.948;2022-07-03T06:20:38;10.30;;;5.27;;
3993;SDS011;2011;48.238;13.948;2022-07-03T06:23:06;6.90;;;4.30;;
3993;SDS011;2011;48.238;13.948;2022-07-03T06:25:33;10.50;;;5.27;;
3993;SDS011;2011;48.238;13.948;2022-07-03T06:28:00;9.00;;;5.50;;
3993;SDS011;2011;48.238;13.948;2022-07-03T06:30:27;7.53;;;4.80;;
3993;SDS011;2011;48.238;13.948;2022-07-03T06:32:54;9.83;;;5.10;;
3993;SDS011;2011;48.238;13.948;2022-07-03T06:35:21;9.73;;;6.13;;
3993;SDS011;2011;48.238;13.948;2022-07-03T06:37:48;8.87;;;5.57;;
3993;SDS011;2011;48.238;13.948;2022-07-03T06:40:17;8.73;;;4.93;;
3993;SDS011;2011;48.238;13.948;2022-07-03T06:42:44;14.23;;;5.30;;
3993;SDS011;2011;48.238;13.948;2022-07-03T06:45:11;12.60;;;5.90;;
3993;SDS011;2011;48.238;13.948;2022-07-03T06:47:38;6.90;;;4.80;;
3993;SDS011;2011;48.238;13.948;2022-07-03T06:50:06;9.00;;;4.87;;
3993;SDS011;2011;48.238;13.948;2022-07-03T06:52:33;11.20;;;4.93;;
3993;SDS011;2011;48.238;13.948;2022-07-03T06:55:01;9.70;;;5.20;;
3993;SDS011;2011;48.238;13.948;2022-07-03T06:57:29;5.90;;;4.10;;
3993;SDS011;2011;48.238;13.948;2022-07-03T06:59:56;8.20;;;5.40;;
3993;SDS011;2011;48.238;13.948;2022-07-03T07:02:23;8.70;;;3.97;;
3993;SDS011;2011;48.238;13.948;2022-07-03T07:04:50;8.03;;;4.60;;
3993;SDS011;2011;48.238;13.948;2022-07-03T07:07:17;7.40;;;4.60;;
3993;SDS011;2011;48.238;13.948;2022-07-03T07:09:45;5.90;;;4.10;;
3993;SDS011;2011;48.238;13.948;2022-07-03T07:12:12;6.33;;;4.50;;
3993;SDS011;2011;48.238;13.948;2022-07-03T07:14:40;5.73;;;4.20;;
3993;SDS011;2011;48.238;13.948;2022-07-03T07:17:08;8.40;;;4.90;;
3993;SDS011;2011;48.238;13.948;2022-07-03T07:19:35;9.53;;;4.63;;
3993;SDS011;2011;48.238;13.948;2022-07-03T07:22:02;13.83;;;4.97;;
3993;SDS011;2011;48.238;13.948;2022-07-03T07:24:29;6.27;;;4.50;;
3993;SDS011;2011;48.238;13.948;2022-07-03T07:26:57;11.37;;;4.53;;
3993;SDS011;2011;48.238;13.948;2022-07-03T07:29:24;6.30;;;4.10;;
3993;SDS011;2011;48.238;13.948;2022-07-03T07:31:52;9.83;;;4.60;;
3993;SDS011;2011;48.238;13.948;2022-07-03T07:34:19;6.70;;;4.67;;
3993;SDS011;2011;48.238;13.948;2022-07-03T07:36:46;6.40;;;4.60;;
3993;SDS011;2011;48.238;13.948;2022-07-03T07:39:13;13.20;;;4.97;;
3993;SDS011;2011;48.238;13.948;2022-07-03T07:41:40;16.03;;;5.13;;
3993;SDS011;2011;48.238;13.948;2022-07-03T07:44:07;6.73;;;4.80;;
3993;SDS011;2011;48.238;13.948;2022-07-03T07:46:34;11.07;;;5.17;;
3993;SDS011;2011;48.238;13.948;2022-07-03T07:49:03;6.93;;;4.40;;
3993;SDS011;2011;48.238;13.948;2022-07-03T07:51:30;6.60;;;4.10;;
3993;SDS011;2011;48.238;13.948;2022-07-03T07:53:57;6.83;;;4.93;;
3993;SDS011;2011;48.238;13.948;2022-07-03T07:56:25;6.90;;;4.80;;
3993;SDS011;2011;48.238;13.948;2022-07-03T07:58:52;9.03;;;4.63;;
3993;SDS011;2011;48.238;13.948;2022-07-03T08:01:19;19.60;;;5.23;;
3993;SDS011;2011;48.238;13.948;2022-07-03T08:04:05;9.00;;;4.80;;
3993;SDS011;2011;48.238;13.948;2022-07-03T08:06:50;11.23;;;5.20;;
3993;SDS011;2011;48.238;13.948;2022-07-03T08:09:17;9.07;;;5.57;;
3993;SDS011;2011;48.238;13.948;2022-07-03T08:11:44;11.03;;;4.40;;
3993;SDS011;2011;48.238;13.948;2022-07-03T08:14:11;9.13;;;5.00;;
3993;SDS011;2011;48.238;13.948;2022-07-03T08:16:38;5.30;;;3.73;;
3993;SDS011;2011;48.238;13.948;2022-07-03T08:19:07;10.00;;;4.37;;
3993;SDS011;2011;48.238;13.948;2022-07-03T08:21:34;8.40;;;4.30;;
3993;SDS011;2011;48.238;13.948;2022-07-03T08:24:01;5.43;;;4.00;;
3993;SDS011;2011;48.238;13.948;2022-07-03T08:26:28;7.70;;;4.40;;
3993;SDS011;2011;48.238;13.948;2022-07-03T08:28:55;6.70;;;3.93;;
3993;SDS011;2011;48.238;13.948;2022-07-03T08:31:22;7.40;;;4.37;;
3993;SDS011;2011;48.238;13.948;2022-07-03T08:33:49;5.97;;;4.30;;
3993;SDS011;2011;48.238;13.948;2022-07-03T08:36:18;7.17;;;4.63;;
3993;SDS011;2011;48.238;13.948;2022-07-03T08:38:45;8.00;;;3.70;;
3993;SDS011;2011;48.238;13.948;2022-07-03T08:41:12;5.30;;;3.80;;
3993;SDS011;2011;48.238;13.948;2022-07-03T08:43:40;5.57;;;3.40;;
3993;SDS011;2011;48.238;13.948;2022-07-03T08:46:08;6.47;;;4.27;;
3993;SDS011;2011;48.238;13.948;2022-07-03T08:48:37;9.97;;;3.73;;
3993;SDS011;2011;48.238;13.948;2022-07-03T08:51:06;8.00;;;3.70;;
3993;SDS011;2011;48.238;13.948;2022-07-03T08:53:34;6.67;;;3.63;;
3993;SDS011;2011;48.238;13.948;2022-07-03T08:56:03;5.87;;;3.40;;
3993;SDS011;2011;48.238;13.948;2022-07-03T08:58:31;7.57;;;3.70;;
3993;SDS011;2011;48.238;13.948;2022-07-03T09:00:58;7.47;;;3.37;;
3993;SDS011;2011;48.238;13.948;2022-07-03T09:03:25;7.10;;;3.20;;
3993;SDS011;2011;48.238;13.948;2022-07-03T09:05:53;5.83;;;3.40;;
3993;SDS011;2011;48.238;13.948;2022-07-03T09:08:20;10.43;;;3.37;;
3993;SDS011;2011;48.238;13.948;2022-07-03T09:10:50;7.83;;;3.40;;
3993;SDS011;2011;48.238;13.948;2022-07-03T09:13:17;6.77;;;3.33;;
3993;SDS011;2011;48.238;13.948;2022-07-03T09:15:44;6.03;;;3.47;;
3993;SDS011;2011;48.238;13.948;2022-07-03T09:18:11;12.00;;;3.27;;
3993;SDS011;2011;48.238;13.948;2022-07-03T09:20:39;9.33;;;3.00;;
3993;SDS011;2011;48.238;13.948;2022-07-03T09:23:11;5.70;;;3.23;;
3993;SDS011;2011;48.238;13.948;2022-07-03T09:25:53;5.07;;;3.07;;
3993;SDS011;2011;48.238;13.948;2022-07-03T09:28:22;6.20;;;3.17;;
3993;SDS011;2011;48.238;13.948;2022-07-03T09:30:56;7.00;;;3.83;;
3993;SDS011;2011;48.238;13.948;2022-07-03T09:33:24;7.00;;;3.50;;
3993;SDS011;2011;48.238;13.948;2022-07-03T09:35:52;5.90;;;3.40;;
3993;SDS011;2011;48.238;13.948;2022-07-03T09:38:20;5.53;;;3.63;;
3993;SDS011;2011;48.238;13.948;2022-07-03T09:40:48;6.67;;;3.23;;
3993;SDS011;2011;48.238;13.948;2022-07-03T09:43:23;5.33;;;3.23;;
3993;SDS011;2011;48.238;13.948;2022-07-03T09:45:52;8.50;;;3.70;;
3993;SDS011;2011;48.238;13.948;2022-07-03T09:48:21;6.40;;;3.80;;
3993;SDS011;2011;48.238;13.948;2022-07-03T09:50:49;6.17;;;3.40;;
3993;SDS011;2011;48.238;13.948;2022-07-03T09:53:42;6.10;;;3.27;;
3993;SDS011;2011;48.238;13.948;2022-07-03T09:56:13;4.80;;;3.47;;
3993;SDS011;2011;48.238;13.948;2022-07-03T09:58:42;6.77;;;3.10;;
3993;SDS011;2011;48.238;13.948;2022-07-03T10:01:30;7.33;;;3.67;;
3993;SDS011;2011;48.238;13.948;2022-07-03T10:04:08;6.30;;;3.07;;
3993;SDS011;2011;48.238;13.948;2022-07-03T10:06:46;5.07;;;3.37;;
3993;SDS011;2011;48.238;13.948;2022-07-03T10:09:14;4.33;;;2.97;;
3993;SDS011;2011;48.238;13.948;2022-07-03T10:11:43;6.73;;;3.20;;
3993;SDS011;2011;48.238;13.948;2022-07-03T10:14:13;5.57;;;3.20;;
3993;SDS011;2011;48.238;13.948;2022-07-03T10:16:41;7.30;;;3.57;;
3993;SDS011;2011;48.238;13.948;2022-07-03T10:19:11;5.33;;;2.90;;
3993;SDS011;2011;48.238;13.948;2022-07-03T10:21:41;4.23;;;2.63;;
3993;SDS011;2011;48.238;13.948;2022-07-03T10:24:10;5.23;;;3.00;;
3993;SDS011;2011;48.238;13.948;2022-07-03T10:26:39;5.80;;;3.13;;
3993;SDS011;2011;48.238;13.948;2022-07-03T10:29:08;6.83;;;3.00;;
3993;SDS011;2011;48.238;13.948;2022-07-03T10:31:43;4.60;;;2.70;;
3993;SDS011;2011;48.238;13.948;2022-07-03T10:34:12;6.87;;;2.80;;
3993;SDS011;2011;48.238;13.948;2022-07-03T10:36:42;8.53;;;3.00;;
3993;SDS011;2011;48.238;13.948;2022-07-03T10:39:13;6.00;;;2.60;;
3993;SDS011;2011;48.238;13.948;2022-07-03T10:41:53;7.43;;;2.73;;
3993;SDS011;2011;48.238;13.948;2022-07-03T10:44:50;6.20;;;2.60;;
3993;SDS011;2011;48.238;13.948;2022-07-03T10:47:40;6.13;;;2.93;;
3993;SDS011;2011;48.238;13.948;2022-07-03T10:50:10;3.67;;;2.57;;
3993;SDS011;2011;48.238;13.948;2022-07-03T10:52:39;6.77;;;2.67;;
3993;SDS011;2011;48.238;13.948;2022-07-03T10:55:07;6.60;;;2.90;;
3993;SDS011;2011;48.238;13.948;2022-07-03T10:57:34;5.20;;;2.50;;
3993;SDS011;2011;48.238;13.948;2022-07-03T11:00:06;3.50;;;1.93;;
3993;SDS011;2011;48.238;13.948;2022-07-03T11:02:42;4.53;;;1.83;;
3993;SDS011;2011;48.238;13.948;2022-07-03T11:05:21;5.13;;;2.37;;
3993;SDS011;2011;48.238;13.948;2022-07-03T11:08:08;3.90;;;2.00;;
3993;SDS011;2011;48.238;13.948;2022-07-03T11:10:37;3.87;;;1.90;;
3993;SDS011;2011;48.238;13.948;2022-07-03T11:13:08;8.63;;;2.40;;
3993;SDS011;2011;48.238;13.948;2022-07-03T11:15:47;3.90;;;2.17;;
3993;SDS011;2011;48.238;13.948;2022-07-03T11:18:21;5.03;;;1.90;;
3993;SDS011;2011;48.238;13.948;2022-07-03T11:21:00;3.97;;;2.00;;
3993;SDS011;2011;48.238;13.948;2022-07-03T11:23:51;3.73;;;1.90;;
3993;SDS011;2011;48.238;13.948;2022-07-03T11:26:43;6.17;;;2.10;;
3993;SDS011;2011;48.238;13.948;2022-07-03T11:29:25;3.43;;;1.67;;
3993;SDS011;2011;48.238;13.948;2022-07-03T11:31:54;4.50;;;2.30;;
3993;SDS011;2011;48.238;13.948;2022-07-03T11:34:23;6.67;;;2.10;;
3993;SDS011;2011;48.238;13.948;2022-07-03T11:36:50;6.83;;;2.17;;
3993;SDS011;2011;48.238;13.948;2022-07-03T11:39:18;6.50;;;2.10;;
3993;SDS011;2011;48.238;13.948;2022-07-03T11:41:48;4.90;;;2.17;;
3993;SDS011;2011;48.238;13.948;2022-07-03T11:44:16;4.80;;;1.80;;
3993;SDS011;2011;48.238;13.948;2022-07-03T11:46:49;7.90;;;1.87;;
3993;SDS011;2011;48.238;13.948;2022-07-03T11:49:19;4.20;;;2.07;;
3993;SDS011;2011;48.238;13.948;2022-07-03T11:51:55;3.90;;;2.00;;
3993;SDS011;2011;48.238;13.948;2022-07-03T11:54:23;3.70;;;1.80;;
3993;SDS011;2011;48.238;13.948;2022-07-03T11:56:51;4.43;;;1.90;;
3993;SDS011;2011;48.238;13.948;2022-07-03T11:59:18;3.77;;;1.90;;
3993;SDS011;2011;48.238;13.948;2022-07-03T12:01:46;3.70;;;1.70;;
3993;SDS011;2011;48.238;13.948;2022-07-03T12:04:14;3.87;;;1.90;;
3993;SDS011;2011;48.238;13.948;2022-07-03T12:06:43;3.53;;;1.70;;
3993;SDS011;2011;48.238;13.948;2022-07-03T12:09:16;3.50;;;1.50;;
3993;SDS011;2011;48.238;13.948;2022-07-03T12:11:51;3.33;;;1.20;;
3993;SDS011;2011;48.238;13.948;2022-07-03T12:14:32;3.00;;;1.43;;
3993;SDS011;2011;48.238;13.948;2022-07-03T12:17:01;3.03;;;1.53;;
3993;SDS011;2011;48.238;13.948;2022-07-03T12:19:28;4.20;;;1.40;;
3993;SDS011;2011;48.238;13.948;2022-07-03T12:21:55;2.70;;;1.20;;
3993;SDS011;2011;48.238;13.948;2022-07-03T12:24:24;2.80;;;1.40;;
3993;SDS011;2011;48.238;13.948;2022-07-03T12:26:51;3.30;;;1.63;;
3993;SDS011;2011;48.238;13.948;2022-07-03T12:29:18;3.10;;;1.50;;
3993;SDS011;2011;48.238;13.948;2022-07-03T12:31:46;3.07;;;1.50;;
3993;SDS011;2011;48.238;13.948;2022-07-03T12:34:15;8.07;;;1.57;;
3993;SDS011;2011;48.238;13.948;2022-07-03T12:36:53;4.37;;;1.53;;
3993;SDS011;2011;48.238;13.948;2022-07-03T12:39:21;3.33;;;1.40;;
3993;SDS011;2011;48.238;13.948;2022-07-03T12:41:50;2.80;;;1.40;;
3993;SDS011;2011;48.238;13.948;2022-07-03T12:44:17;3.30;;;1.50;;
3993;SDS011;2011;48.238;13.948;2022-07-03T12:46:46;4.57;;;1.30;;
3993;SDS011;2011;48.238;13.948;2022-07-03T12:49:14;5.10;;;1.60;;
3993;SDS011;2011;48.238;13.948;2022-07-03T12:51:42;6.10;;;1.40;;
3993;SDS011;2011;48.238;13.948;2022-07-03T12:54:11;6.50;;;1.40;;
3993;SDS011;2011;48.238;13.948;2022-07-03T12:56:40;5.10;;;1.80;;
3993;SDS011;2011;48.238;13.948;2022-07-03T13:02:00;7.07;;;1.50;;
3993;SDS011;2011;48.238;13.948;2022-07-03T13:04:29;4.00;;;1.60;;
3993;SDS011;2011;48.238;13.948;2022-07-03T13:07:01;6.60;;;1.50;;
3993;SDS011;2011;48.238;13.948;2022-07-03T13:09:29;6.93;;;1.40;;
3993;SDS011;2011;48.238;13.948;2022-07-03T13:11:57;6.87;;;1.40;;
3993;SDS011;2011;48.238;13.948;2022-07-03T13:14:25;3.60;;;1.43;;
3993;SDS011;2011;48.238;13.948;2022-07-03T13:16:52;3.50;;;1.37;;
3993;SDS011;2011;48.238;13.948;2022-07-03T13:19:20;2.80;;;1.20;;
3993;SDS011;2011;48.238;13.948;2022-07-03T13:21:49;3.10;;;1.50;;
3993;SDS011;2011;48.238;13.948;2022-07-03T13:24:17;5.33;;;1.40;;
3993;SDS011;2011;48.238;13.948;2022-07-03T13:26:45;4.03;;;1.30;;
3993;SDS011;2011;48.238;13.948;2022-07-03T13:29:13;6.47;;;1.70;;
3993;SDS011;2011;48.238;13.948;2022-07-03T13:31:42;4.73;;;1.50;;
3993;SDS011;2011;48.238;13.948;2022-07-03T13:34:09;5.47;;;1.40;;
3993;SDS011;2011;48.238;13.948;2022-07-03T13:36:36;2.87;;;1.30;;
3993;SDS011;2011;48.238;13.948;2022-07-03T13:39:03;5.03;;;1.47;;
3993;SDS011;2011;48.238;13.948;2022-07-03T13:41:33;5.80;;;1.33;;
3993;SDS011;2011;48.238;13.948;2022-07-03T13:44:00;4.20;;;1.53;;
3993;SDS011;2011;48.238;13.948;2022-07-03T13:46:27;4.53;;;1.37;;
3993;SDS011;2011;48.238;13.948;2022-07-03T13:48:56;19.20;;;1.50;;
3993;SDS011;2011;48.238;13.948;2022-07-03T13:51:23;2.87;;;1.33;;
3993;SDS011;2011;48.238;13.948;2022-07-03T13:53:50;4.60;;;1.60;;
3993;SDS011;2011;48.238;13.948;2022-07-03T13:56:18;2.97;;;1.40;;
3993;SDS011;2011;48.238;13.948;2022-07-03T13:58:45;4.60;;;1.50;;
3993;SDS011;2011;48.238;13.948;2022-07-03T14:01:12;6.10;;;1.60;;
3993;SDS011;2011;48.238;13.948;2022-07-03T14:03:39;5.00;;;1.40;;
3993;SDS011;2011;48.238;13.948;2022-07-03T14:06:08;4.20;;;1.20;;
3993;SDS011;2011;48.238;13.948;2022-07-03T14:08:35;4.10;;;1.63;;
3993;SDS011;2011;48.238;13.948;2022-07-03T14:11:02;3.83;;;1.53;;
3993;SDS011;2011;48.238;13.948;2022-07-03T14:13:30;6.57;;;1.40;;
3993;SDS011;2011;48.238;13.948;2022-07-03T14:15:56;6.60;;;1.60;;
3993;SDS011;2011;48.238;13.948;2022-07-03T14:18:25;3.07;;;1.50;;
3993;SDS011;2011;48.238;13.948;2022-07-03T14:20:52;3.80;;;1.40;;
3993;SDS011;2011;48.238;13.948;2022-07-03T14:23:20;8.33;;;1.63;;
3993;SDS011;2011;48.238;13.948;2022-07-03T14:25:48;3.97;;;1.57;;
3993;SDS011;2011;48.238;13.948;2022-07-03T14:28:15;10.10;;;1.70;;
3993;SDS011;2011;48.238;13.948;2022-07-03T14:30:59;3.60;;;1.23;;
3993;SDS011;2011;48.238;13.948;2022-07-03T14:33:58;3.20;;;1.00;;
3993;SDS011;2011;48.238;13.948;2022-07-03T14:36:25;9.93;;;1.93;;
3993;SDS011;2011;48.238;13.948;2022-07-03T14:38:53;2.63;;;1.50;;
3993;SDS011;2011;48.238;13.948;2022-07-03T14:41:20;2.83;;;1.27;;
3993;SDS011;2011;48.238;13.948;2022-07-03T14:43:47;3.40;;;1.23;;
3993;SDS011;2011;48.238;13.948;2022-07-03T14:46:15;5.03;;;1.50;;
3993;SDS011;2011;48.238;13.948;2022-07-03T14:48:42;6.70;;;1.30;;
3993;SDS011;2011;48.238;13.948;2022-07-03T14:51:09;4.70;;;1.40;;
3993;SDS011;2011;48.238;13.948;2022-07-03T14:53:36;4.30;;;1.53;;
3993;SDS011;2011;48.238;13.948;2022-07-03T14:56:04;2.60;;;1.40;;
3993;SDS011;2011;48.238;13.948;2022-07-03T14:58:33;2.50;;;1.30;;
3993;SDS011;2011;48.238;13.948;2022-07-03T15:01:04;4.10;;;1.33;;
3993;SDS011;2011;48.238;13.948;2022-07-03T15:03:35;3.20;;;1.30;;
3993;SDS011;2011;48.238;13.948;2022-07-03T15:06:08;11.07;;;1.80;;
3993;SDS011;2011;48.238;13.948;2022-07-03T15:11:28;3.03;;;1.47;;
3993;SDS011;2011;48.238;13.948;2022-07-03T15:14:17;4.13;;;1.60;;
3993;SDS011;2011;48.238;13.948;2022-07-03T15:16:46;6.87;;;1.60;;
3993;SDS011;2011;48.238;13.948;2022-07-03T15:19:16;2.57;;;1.30;;
3993;SDS011;2011;48.238;13.948;2022-07-03T15:21:45;9.00;;;1.60;;
3993;SDS011;2011;48.238;13.948;2022-07-03T15:24:13;5.83;;;1.60;;
3993;SDS011;2011;48.238;13.948;2022-07-03T15:26:49;4.40;;;1.60;;
3993;SDS011;2011;48.238;13.948;2022-07-03T15:29:18;3.97;;;1.40;;
3993;SDS011;2011;48.238;13.948;2022-07-03T15:31:46;5.90;;;1.10;;
3993;SDS011;2011;48.238;13.948;2022-07-03T15:34:13;3.43;;;1.53;;